Time;durP1;ratioP1;P1;durP2;ratioP2;P2;SDS_P1;SDS_P2;PMS_P1;PMS_P2;Temp;Humidity;BMP_temperature;BMP_pressure;BME280_temperature;BME280_humidity;BME280_pressure;Samples;Min_cycle;Max_cycle;Signal;HPM_P1;HPM_P2
2022/07/13 00:01:56;;;;;;;3.00;2.70;;;21.60;55.60;;;;;;6255474;22;20149;-89
2022/07/13 00:04:22;;;;;;;2.90;2.70;;;21.60;55.70;;;;;;6280302;22;20182;-89
2022/07/13 00:06:50;;;;;;;2.40;2.20;;;21.60;55.70;;;;;;6255307;22;20176;-89
2022/07/13 00:09:16;;;;;;;2.80;2.60;;;21.50;55.60;;;;;;6255575;22;20141;-88
2022/07/13 00:11:42;;;;;;;2.58;2.38;;;21.60;55.60;;;;;;6280571;22;20179;-89
2022/07/13 00:14:07;;;;;;;2.55;2.35;;;21.60;55.60;;;;;;6280795;22;20168;-89
2022/07/13 00:16:34;;;;;;;2.85;2.65;;;21.50;55.60;;;;;;6255169;22;20144;-89
2022/07/13 00:19:01;;;;;;;2.30;2.10;;;21.60;55.70;;;;;;6254822;22;20145;-89
2022/07/13 00:21:27;;;;;;;2.50;2.30;;;21.50;55.70;;;;;;6255711;22;20639;-89
2022/07/13 00:23:52;;;;;;;2.60;2.40;;;21.60;55.80;;;;;;6281276;22;20133;-90
2022/07/13 00:26:19;;;;;;;2.70;2.50;;;21.60;55.80;;;;;;6255411;22;20195;-89
2022/07/13 00:28:46;;;;;;;2.60;2.40;;;21.50;55.80;;;;;;6256049;22;20145;-90
2022/07/13 00:31:11;;;;;;;2.60;2.40;;;21.50;55.80;;;;;;6255839;22;20199;-90
2022/07/13 00:33:38;;;;;;;2.67;2.47;;;21.50;55.80;;;;;;6281377;22;20129;-89
2022/07/13 00:36:04;;;;;;;2.60;2.40;;;21.50;55.80;;;;;;6280638;22;20129;-89
2022/07/13 00:38:30;;;;;;;2.80;2.60;;;21.50;55.80;;;;;;6255499;22;20191;-89
2022/07/13 00:40:56;;;;;;;2.83;2.63;;;21.50;55.80;;;;;;6254691;22;20279;-90
2022/07/13 00:43:21;;;;;;;2.47;2.28;;;21.50;55.90;;;;;;6254511;22;20214;-89
2022/07/13 00:45:50;;;;;;;2.60;2.40;;;21.50;55.90;;;;;;6254269;22;20194;-89
2022/07/13 00:48:16;;;;;;;2.70;2.50;;;21.50;55.90;;;;;;6280032;22;20161;-89
2022/07/13 00:50:43;;;;;;;2.50;2.30;;;21.50;55.90;;;;;;6254408;22;20205;-89
2022/07/13 00:53:09;;;;;;;2.60;2.40;;;21.50;55.90;;;;;;6279271;22;20130;-89
2022/07/13 00:55:34;;;;;;;2.53;2.33;;;21.50;55.90;;;;;;6280582;22;20133;-90
2022/07/13 00:58:01;;;;;;;2.60;2.40;;;21.50;55.90;;;;;;6254238;22;20231;-90
2022/07/13 01:00:27;;;;;;;2.55;2.35;;;21.50;55.90;;;;;;6280781;22;20139;-89
2022/07/13 01:02:54;;;;;;;2.58;2.38;;;21.50;56.00;;;;;;6254192;22;20160;-89
2022/07/13 01:05:21;;;;;;;2.60;2.40;;;21.50;56.00;;;;;;6254681;22;20153;-89
2022/07/13 01:07:48;;;;;;;2.47;2.28;;;21.50;56.00;;;;;;6253970;22;20168;-89
2022/07/13 01:10:14;;;;;;;2.60;2.40;;;21.50;56.10;;;;;;6254019;22;20133;-89
2022/07/13 01:12:40;;;;;;;2.72;2.53;;;21.50;56.10;;;;;;6255570;22;20141;-89
2022/07/13 01:15:07;;;;;;;2.65;2.45;;;21.50;56.10;;;;;;6279198;22;20583;-89
2022/07/13 01:17:34;;;;;;;2.70;2.50;;;21.50;56.10;;;;;;6254121;22;20149;-88
2022/07/13 01:20:01;;;;;;;2.92;2.63;;;21.50;56.10;;;;;;6254268;22;20149;-88
2022/07/13 01:22:33;;;;;;;2.40;2.20;;;21.50;56.10;;;;;;6253938;22;20141;-89
2022/07/13 01:24:58;;;;;;;2.88;2.67;;;21.40;56.10;;;;;;6279600;22;20141;-90
2022/07/13 01:27:24;;;;;;;2.40;2.20;;;21.40;56.10;;;;;;6254654;22;20541;-89
2022/07/13 01:29:51;;;;;;;2.53;2.33;;;21.40;56.10;;;;;;6279275;22;20159;-89
2022/07/13 01:32:17;;;;;;;2.70;2.50;;;21.40;56.10;;;;;;6280330;22;20186;-90
2022/07/13 01:34:43;;;;;;;2.80;2.60;;;21.40;56.20;;;;;;6279897;22;20145;-89
2022/07/13 01:37:09;;;;;;;2.83;2.63;;;21.40;56.20;;;;;;6279325;22;20190;-89
2022/07/13 01:39:40;;;;;;;2.55;2.35;;;21.50;56.20;;;;;;6254173;22;20203;-89
2022/07/13 01:42:06;;;;;;;2.60;2.40;;;21.50;56.30;;;;;;6254279;22;20152;-89
2022/07/13 01:44:33;;;;;;;3.08;2.78;;;21.40;56.20;;;;;;6253669;22;20152;-90
2022/07/13 01:47:07;;;;;;;2.95;2.75;;;21.30;56.20;;;;;;6253101;22;20236;-90
2022/07/13 01:49:33;;;;;;;2.70;2.50;;;21.40;56.20;;;;;;6278753;22;20207;-89
2022/07/13 01:51:59;;;;;;;2.90;2.60;;;21.40;56.30;;;;;;6279314;22;20190;-90
2022/07/13 01:54:24;;;;;;;2.40;2.20;;;21.40;56.30;;;;;;6253386;22;20145;-89
2022/07/13 01:56:50;;;;;;;2.50;2.30;;;21.40;56.30;;;;;;6278289;22;20212;-89
2022/07/13 01:59:16;;;;;;;2.63;2.42;;;21.40;56.30;;;;;;6253477;22;20176;-90
2022/07/13 02:01:45;;;;;;;2.65;2.45;;;21.40;56.30;;;;;;6253949;22;20149;-89
2022/07/13 02:04:11;;;;;;;2.42;2.22;;;21.30;56.30;;;;;;6252709;22;20532;-89
2022/07/13 02:06:37;;;;;;;2.20;2.10;;;21.40;56.30;;;;;;6254479;22;20486;-90
2022/07/13 02:09:03;;;;;;;2.60;2.40;;;21.40;56.40;;;;;;6279214;22;20125;-88
2022/07/13 02:11:29;;;;;;;2.60;2.40;;;21.40;56.40;;;;;;6278223;22;20140;-88
2022/07/13 02:13:55;;;;;;;2.30;2.10;;;21.30;56.30;;;;;;6253779;22;20141;-90
2022/07/13 02:16:21;;;;;;;2.50;2.30;;;21.30;56.40;;;;;;6278732;22;20133;-89
2022/07/13 02:18:47;;;;;;;2.53;2.33;;;21.40;56.50;;;;;;6254103;22;20492;-89
2022/07/13 02:21:13;;;;;;;2.40;2.20;;;21.40;56.60;;;;;;6253202;22;20151;-89
2022/07/13 02:23:39;;;;;;;2.80;2.60;;;21.30;56.50;;;;;;6253318;22;20152;-90
2022/07/13 02:26:06;;;;;;;2.55;2.35;;;21.30;57.20;;;;;;6279574;22;20161;-89
2022/07/13 02:28:32;;;;;;;2.60;2.40;;;21.30;56.60;;;;;;6253144;22;20552;-89
2022/07/13 02:31:01;;;;;;;2.60;2.40;;;21.30;56.60;;;;;;6253133;22;20144;-88
2022/07/13 02:33:26;;;;;;;2.42;2.22;;;21.40;56.60;;;;;;6253068;22;20141;-90
2022/07/13 02:35:52;;;;;;;2.75;2.55;;;21.30;56.60;;;;;;6253131;22;20191;-89
2022/07/13 02:38:18;;;;;;;2.47;2.28;;;21.30;56.60;;;;;;6253124;22;20192;-90
2022/07/13 02:40:43;;;;;;;2.63;2.42;;;21.20;56.50;;;;;;6279442;22;20140;-90
2022/07/13 02:43:09;;;;;;;2.53;2.30;;;21.20;56.60;;;;;;6253325;22;20149;-89
2022/07/13 02:45:36;;;;;;;2.55;2.35;;;21.30;56.60;;;;;;6253229;22;20148;-89
2022/07/13 02:48:05;;;;;;;2.65;2.45;;;21.30;56.60;;;;;;6278653;22;20157;-89
2022/07/13 02:50:31;;;;;;;2.80;2.60;;;21.30;56.60;;;;;;6252723;22;20152;-90
2022/07/13 02:52:59;;;;;;;2.33;2.20;;;21.20;56.60;;;;;;6252911;22;20145;-89
2022/07/13 02:55:25;;;;;;;2.60;2.40;;;21.20;56.60;;;;;;6278635;22;20129;-88
2022/07/13 02:57:52;;;;;;;2.50;2.30;;;21.30;56.70;;;;;;6278404;22;20139;-90
2022/07/13 03:00:19;;;;;;;2.38;2.17;;;21.30;56.70;;;;;;6253022;22;20156;-88
2022/07/13 03:02:45;;;;;;;2.60;2.40;;;21.30;56.60;;;;;;6252352;22;20145;-90
2022/07/13 03:05:11;;;;;;;2.30;2.10;;;21.30;56.70;;;;;;6253074;22;20152;-89
2022/07/13 03:07:39;;;;;;;2.67;2.47;;;21.30;56.70;;;;;;6278283;22;20226;-89
2022/07/13 03:10:06;;;;;;;2.70;2.50;;;21.30;56.70;;;;;;6253753;22;20578;-89
2022/07/13 03:12:33;;;;;;;2.50;2.30;;;21.20;56.70;;;;;;6280419;22;20136;-90
2022/07/13 03:14:59;;;;;;;2.60;2.40;;;21.20;56.70;;;;;;6254896;22;20140;-89
2022/07/13 03:17:25;;;;;;;2.50;2.30;;;21.20;56.70;;;;;;6280096;22;20176;-88
2022/07/13 03:19:51;;;;;;;2.60;2.40;;;21.20;56.80;;;;;;6255392;22;20167;-89
2022/07/13 03:22:16;;;;;;;2.60;2.40;;;21.20;56.80;;;;;;6254872;22;20596;-89
2022/07/13 03:24:43;;;;;;;2.70;2.50;;;21.20;56.80;;;;;;6255405;22;20148;-90
2022/07/13 03:27:11;;;;;;;2.65;2.45;;;21.20;56.80;;;;;;6255591;22;20184;-88
2022/07/13 03:29:36;;;;;;;2.42;2.22;;;21.20;56.80;;;;;;6254294;22;20148;-88
2022/07/13 03:32:02;;;;;;;2.40;2.20;;;21.30;56.90;;;;;;6279722;22;20134;-88
2022/07/13 03:34:29;;;;;;;2.33;2.15;;;21.20;56.80;;;;;;6279732;22;20183;-89
2022/07/13 03:36:55;;;;;;;2.58;2.38;;;21.20;56.90;;;;;;6280527;22;20129;-90
2022/07/13 03:39:20;;;;;;;2.70;2.50;;;21.20;56.90;;;;;;6280514;22;20192;-89
2022/07/13 03:41:46;;;;;;;2.55;2.35;;;21.20;56.80;;;;;;6280557;22;20129;-90
2022/07/13 03:44:12;;;;;;;2.10;2.00;;;21.30;56.90;;;;;;6254553;22;20210;-89
2022/07/13 03:46:40;;;;;;;2.63;2.40;;;21.20;56.90;;;;;;6279386;22;20164;-89
2022/07/13 03:49:10;;;;;;;2.50;2.30;;;21.10;56.80;;;;;;6254556;22;20160;-89
2022/07/13 03:51:38;;;;;;;2.40;2.20;;;21.20;56.90;;;;;;6280926;22;20132;-88
2022/07/13 03:54:05;;;;;;;2.55;2.35;;;21.20;56.90;;;;;;6280725;22;20126;-90
2022/07/13 03:56:31;;;;;;;2.50;2.30;;;21.20;56.90;;;;;;6279977;22;20136;-89
2022/07/13 03:58:58;;;;;;;2.25;2.05;;;21.20;57.00;;;;;;6255465;22;20156;-89
2022/07/13 04:01:24;;;;;;;2.40;2.20;;;21.20;57.00;;;;;;6279766;22;20159;-89
2022/07/13 04:03:51;;;;;;;3.13;2.30;;;21.20;57.00;;;;;;6282032;22;20137;-89
2022/07/13 04:06:19;;;;;;;2.72;2.53;;;21.10;57.00;;;;;;6280902;22;20129;-90
2022/07/13 04:08:44;;;;;;;2.40;2.20;;;21.20;57.00;;;;;;6280465;22;20153;-89
2022/07/13 04:11:10;;;;;;;2.30;2.10;;;21.20;57.00;;;;;;6255450;22;20455;-90
2022/07/13 04:13:36;;;;;;;2.70;2.50;;;21.20;57.00;;;;;;6255675;22;20185;-88
2022/07/13 04:16:03;;;;;;;2.60;2.40;;;21.20;57.00;;;;;;6255262;22;20286;-88
2022/07/13 04:18:31;;;;;;;2.75;2.55;;;21.20;57.10;;;;;;6280597;22;20175;-88
2022/07/13 04:20:58;;;;;;;2.65;2.45;;;21.20;57.70;;;;;;6255305;22;20526;-89
2022/07/13 04:23:25;;;;;;;2.50;2.30;;;21.20;57.10;;;;;;6256633;22;20155;-89
2022/07/13 04:25:51;;;;;;;2.58;2.38;;;21.20;57.10;;;;;;6256329;22;20153;-89
2022/07/13 04:28:18;;;;;;;2.40;2.20;;;21.20;57.10;;;;;;6284349;22;20176;-89
2022/07/13 04:30:44;;;;;;;2.60;2.40;;;21.20;57.10;;;;;;6286053;22;20129;-88
2022/07/13 04:33:10;;;;;;;2.38;2.17;;;21.20;57.10;;;;;;6259852;22;20156;-89
2022/07/13 04:35:36;;;;;;;2.53;2.33;;;21.20;57.10;;;;;;6259343;22;20157;-88
2022/07/13 04:38:01;;;;;;;2.60;2.40;;;21.20;57.10;;;;;;6263925;22;20611;-89
2022/07/13 04:40:27;;;;;;;2.40;2.20;;;21.20;57.00;;;;;;6291017;22;20159;-88
2022/07/13 04:42:56;;;;;;;2.50;2.30;;;21.30;57.10;;;;;;6266304;22;20152;-88
2022/07/13 04:45:21;;;;;;;2.50;2.30;;;21.20;57.10;;;;;;6267583;22;20182;-88
2022/07/13 04:47:48;;;;;;;2.10;2.00;;;21.20;57.10;;;;;;6266570;22;20180;-90
2022/07/13 04:50:14;;;;;;;2.50;2.30;;;21.20;57.10;;;;;;6267575;22;20140;-89
2022/07/13 04:52:43;;;;;;;2.50;2.30;;;21.10;57.10;;;;;;6269060;22;20151;-88
2022/07/13 04:55:09;;;;;;;2.40;2.20;;;21.30;57.20;;;;;;6268260;22;20150;-88
2022/07/13 04:57:36;;;;;;;2.55;2.35;;;21.30;57.10;;;;;;6269726;22;20140;-88
2022/07/13 05:00:05;;;;;;;2.60;2.40;;;21.30;57.40;;;;;;6268891;22;20140;-89
2022/07/13 05:02:38;;;;;;;2.58;2.38;;;21.40;57.80;;;;;;6295053;22;20124;-89
2022/07/13 05:05:05;;;;;;;2.72;2.53;;;21.40;57.50;;;;;;6269268;22;20148;-88
2022/07/13 05:07:32;;;;;;;2.50;2.30;;;21.40;57.90;;;;;;6268014;22;20261;-88
2022/07/13 05:10:00;;;;;;;2.40;2.20;;;21.40;57.70;;;;;;6266266;22;20609;-89
2022/07/13 05:12:26;;;;;;;2.40;2.20;;;21.40;58.00;;;;;;6292741;22;20159;-89
2022/07/13 05:14:52;;;;;;;2.10;2.00;;;21.40;57.80;;;;;;6266090;22;20412;-88
2022/07/13 05:17:19;;;;;;;2.63;2.42;;;21.50;57.90;;;;;;6267074;22;20560;-88
2022/07/13 05:19:45;;;;;;;2.58;2.38;;;21.50;57.60;;;;;;6293250;22;20132;-89
2022/07/13 05:22:11;;;;;;;2.40;2.20;;;21.60;57.80;;;;;;6267841;22;20230;-88
2022/07/13 05:24:36;;;;;;;2.28;2.08;;;21.50;58.00;;;;;;6267996;22;20479;-89
2022/07/13 05:27:02;;;;;;;2.25;2.05;;;21.50;58.00;;;;;;6268737;22;20183;-88
2022/07/13 05:29:28;;;;;;;2.00;1.90;;;21.60;58.10;;;;;;6268835;22;20140;-88
2022/07/13 05:31:59;;;;;;;2.60;2.40;;;21.60;58.20;;;;;;6267991;22;20140;-88
2022/07/13 05:34:26;;;;;;;2.70;2.30;;;21.70;58.10;;;;;;6293453;22;20132;-87
2022/07/13 05:36:55;;;;;;;2.03;1.92;;;21.70;58.10;;;;;;6267014;22;20140;-89
2022/07/13 05:39:24;;;;;;;2.40;2.20;;;21.70;58.40;;;;;;6293125;22;20222;-87
2022/07/13 05:41:50;;;;;;;2.33;2.13;;;21.70;58.30;;;;;;6267737;22;20152;-89
2022/07/13 05:44:18;;;;;;;2.08;1.98;;;21.70;58.30;;;;;;6293325;22;20182;-87
2022/07/13 05:46:46;;;;;;;2.28;2.08;;;21.80;58.50;;;;;;6267936;22;20168;-88
2022/07/13 05:49:16;;;;;;;2.40;2.20;;;21.80;58.40;;;;;;6267002;22;20140;-87
2022/07/13 05:51:42;;;;;;;2.28;2.08;;;21.70;58.70;;;;;;6293034;22;20124;-89
2022/07/13 05:54:08;;;;;;;2.30;2.10;;;21.80;58.70;;;;;;6267389;22;20208;-87
2022/07/13 05:56:34;;;;;;;2.45;2.25;;;21.90;58.60;;;;;;6292624;22;20136;-89
2022/07/13 05:59:01;;;;;;;2.50;2.30;;;21.80;58.50;;;;;;6292262;22;20166;-88
2022/07/13 06:01:31;;;;;;;2.33;2.13;;;21.90;59.40;;;;;;6266675;22;20140;-88
2022/07/13 06:03:57;;;;;;;2.40;2.20;;;21.90;58.70;;;;;;6267539;22;20170;-88
2022/07/13 06:06:22;;;;;;;2.03;1.92;;;21.90;58.70;;;;;;6266984;22;20172;-88
2022/07/13 06:08:48;;;;;;;2.20;2.00;;;21.90;58.90;;;;;;6291822;22;20152;-88
2022/07/13 06:11:14;;;;;;;2.67;2.47;;;22.00;58.70;;;;;;6265920;22;20136;-88
2022/07/13 06:13:41;;;;;;;2.25;2.05;;;22.00;58.90;;;;;;6292274;22;20137;-88
2022/07/13 06:16:07;;;;;;;2.22;2.03;;;22.00;58.90;;;;;;6292790;22;20150;-89
2022/07/13 06:18:33;;;;;;;2.28;2.08;;;22.00;58.90;;;;;;6267295;22;20162;-88
2022/07/13 06:21:02;;;;;;;2.25;2.05;;;22.00;59.70;;;;;;6204017;23;20176;-89
2022/07/13 06:23:30;;;;;;;2.13;1.92;;;22.00;59.30;;;;;;6204187;23;20303;-88
2022/07/13 06:25:58;;;;;;;2.25;2.10;;;22.10;59.10;;;;;;6203520;23;20180;-89
2022/07/13 06:28:24;;;;;;;2.45;2.25;;;22.20;59.40;;;;;;6203143;23;20281;-88
2022/07/13 06:30:58;;;;;;;2.55;2.33;;;22.10;59.30;;;;;;6202262;23;20216;-90
2022/07/13 06:33:25;;;;;;;2.28;2.08;;;22.20;59.30;;;;;;6202008;23;20205;-89
2022/07/13 06:35:53;;;;;;;2.17;2.00;;;22.20;59.30;;;;;;6203294;23;20516;-88
2022/07/13 06:38:19;;;;;;;2.28;2.08;;;22.20;59.60;;;;;;6203367;23;20193;-88
2022/07/13 06:40:47;;;;;;;2.50;2.30;;;22.10;59.60;;;;;;6203903;23;20187;-88
2022/07/13 06:43:13;;;;;;;2.25;2.10;;;22.10;59.70;;;;;;6202499;23;20540;-88
2022/07/13 06:45:39;;;;;;;2.30;2.10;;;22.20;59.80;;;;;;6228664;23;20138;-88
2022/07/13 06:48:05;;;;;;;2.60;2.40;;;22.20;59.70;;;;;;6203399;23;20173;-89
2022/07/13 06:50:32;;;;;;;2.50;2.30;;;22.20;60.00;;;;;;6228743;23;20160;-89
2022/07/13 06:53:00;;;;;;;2.42;2.22;;;22.20;59.90;;;;;;6256127;22;20175;-89
2022/07/13 06:55:28;;;;;;;2.13;1.92;;;22.20;59.90;;;;;;6260364;22;20167;-88
2022/07/13 06:57:55;;;;;;;2.47;2.28;;;22.20;60.10;;;;;;6285084;22;20137;-88
2022/07/13 07:00:21;;;;;;;2.15;1.95;;;22.30;60.10;;;;;;6260573;22;20152;-89
2022/07/13 07:02:47;;;;;;;3.83;2.15;;;22.30;59.90;;;;;;6285832;22;20626;-88
2022/07/13 07:05:13;;;;;;;2.35;2.15;;;22.30;60.30;;;;;;6259914;22;20156;-90
2022/07/13 07:07:39;;;;;;;2.30;2.10;;;22.30;60.60;;;;;;6260148;22;20181;-89
2022/07/13 07:10:05;;;;;;;2.60;2.40;;;22.30;60.50;;;;;;6259199;22;20171;-88
2022/07/13 07:12:31;;;;;;;2.47;2.28;;;22.30;60.40;;;;;;6285228;22;20129;-89
2022/07/13 07:14:57;;;;;;;2.10;2.00;;;22.20;60.70;;;;;;6259913;22;20145;-88
2022/07/13 07:17:23;;;;;;;2.40;2.20;;;22.20;60.70;;;;;;6284342;22;20137;-88
2022/07/13 07:20:03;;;;;;;2.30;2.10;;;22.20;61.00;;;;;;6258321;22;20235;-89
2022/07/13 07:22:30;;;;;;;2.25;2.05;;;22.30;61.10;;;;;;6258881;22;20175;-89
2022/07/13 07:24:56;;;;;;;2.30;2.10;;;22.30;61.30;;;;;;6258038;22;20149;-89
2022/07/13 07:27:22;;;;;;;2.30;2.10;;;22.30;60.90;;;;;;6257995;22;20181;-88
2022/07/13 07:29:50;;;;;;;2.40;2.20;;;22.30;61.00;;;;;;6282989;22;20165;-89
2022/07/13 07:32:18;;;;;;;2.22;2.03;;;22.30;61.10;;;;;;6282797;22;20460;-89
2022/07/13 07:34:47;;;;;;;2.40;2.20;;;22.30;61.10;;;;;;6257504;22;20507;-88
2022/07/13 07:37:13;;;;;;;2.38;2.17;;;22.40;61.40;;;;;;6257291;22;20159;-88
2022/07/13 07:39:40;;;;;;;2.03;1.92;;;22.40;61.30;;;;;;6282396;22;20248;-88
2022/07/13 07:42:06;;;;;;;2.40;2.20;;;22.40;61.60;;;;;;6281686;22;20139;-88
2022/07/13 07:44:32;;;;;;;2.28;2.08;;;22.40;61.40;;;;;;6281036;22;20129;-88
2022/07/13 07:47:00;;;;;;;2.35;2.15;;;22.30;61.30;;;;;;6280952;22;20607;-88
2022/07/13 07:49:25;;;;;;;2.40;2.20;;;22.30;61.70;;;;;;6256137;22;20208;-89
2022/07/13 07:51:51;;;;;;;2.47;2.28;;;22.30;61.80;;;;;;6256969;22;20152;-89
2022/07/13 07:54:17;;;;;;;2.25;2.05;;;22.40;61.80;;;;;;6256429;22;20222;-90
2022/07/13 07:56:49;;;;;;;2.30;2.10;;;22.30;61.90;;;;;;6255775;22;20148;-88
2022/07/13 07:59:17;;;;;;;2.30;2.10;;;22.40;62.10;;;;;;6255226;22;20202;-89
2022/07/13 08:01:47;;;;;;;2.30;2.10;;;22.40;62.10;;;;;;6256049;22;20152;-88
2022/07/13 08:04:13;;;;;;;2.42;2.22;;;22.40;62.20;;;;;;6255109;22;20184;-89
2022/07/13 08:06:38;;;;;;;2.88;2.55;;;22.40;63.10;;;;;;6255812;22;20481;-88
2022/07/13 08:09:05;;;;;;;2.40;2.20;;;22.50;62.10;;;;;;6255097;22;20461;-88
2022/07/13 08:11:30;;;;;;;2.40;2.20;;;22.40;62.20;;;;;;6254047;22;20149;-91
2022/07/13 08:13:56;;;;;;;2.70;2.50;;;22.50;62.30;;;;;;6254183;22;20199;-89
2022/07/13 08:16:22;;;;;;;2.10;1.90;;;22.40;62.60;;;;;;6254410;22;20187;-89
2022/07/13 08:18:50;;;;;;;2.50;2.30;;;22.50;62.50;;;;;;6255237;22;20145;-88
2022/07/13 08:21:16;;;;;;;2.30;2.10;;;22.50;62.50;;;;;;6279705;22;20125;-90
2022/07/13 08:23:52;;;;;;;2.53;2.30;;;22.50;62.20;;;;;;6279691;22;20129;-89
2022/07/13 08:26:21;;;;;;;2.55;2.35;;;22.50;62.40;;;;;;6279896;22;20125;-90
2022/07/13 08:28:48;;;;;;;2.30;2.10;;;22.50;62.60;;;;;;6253756;22;20145;-89
2022/07/13 08:31:14;;;;;;;2.40;2.20;;;22.50;62.40;;;;;;6254859;22;20149;-89
2022/07/13 08:39:00;;;;;;;2.80;2.60;;;22.60;63.50;;;;;;6279241;22;20570;-89
2022/07/13 08:41:26;;;;;;;2.60;2.40;;;22.50;62.50;;;;;;6253310;22;20585;-89
2022/07/13 08:43:51;;;;;;;2.53;2.33;;;22.60;62.50;;;;;;6278907;22;20564;-88
2022/07/13 08:46:17;;;;;;;2.50;2.30;;;22.50;62.80;;;;;;6253336;22;20149;-90
2022/07/13 08:48:45;;;;;;;2.30;2.10;;;22.60;62.60;;;;;;6252954;22;20160;-89
2022/07/13 08:51:11;;;;;;;2.60;2.40;;;22.60;62.50;;;;;;6279027;22;20128;-89
2022/07/13 08:53:38;;;;;;;2.60;2.40;;;22.50;62.90;;;;;;6278479;22;20133;-89
2022/07/13 08:56:04;;;;;;;2.50;2.30;;;22.60;62.90;;;;;;6278318;22;20133;-89
2022/07/13 08:58:30;;;;;;;2.60;2.40;;;22.60;63.00;;;;;;6277982;22;20137;-90
2022/07/13 09:01:00;;;;;;;2.67;2.45;;;22.60;62.90;;;;;;6252576;22;20149;-88
2022/07/13 09:03:26;;;;;;;2.60;2.40;;;22.60;63.00;;;;;;6253555;22;20148;-87
2022/07/13 09:05:51;;;;;;;2.60;2.40;;;22.50;63.00;;;;;;6252759;22;20183;-90
2022/07/13 09:08:18;;;;;;;2.70;2.50;;;22.60;63.00;;;;;;6278556;22;20157;-90
2022/07/13 09:10:58;;;;;;;2.75;2.55;;;22.50;63.10;;;;;;6278493;22;20129;-88
2022/07/13 09:13:41;;;;;;;2.80;2.60;;;22.50;63.50;;;;;;6253989;22;20172;-90
2022/07/13 09:16:25;;;;;;;2.80;2.60;;;22.50;63.30;;;;;;6253462;22;20164;-87
2022/07/13 09:19:01;;;;;;;2.53;2.33;;;22.60;63.20;;;;;;6252681;22;20205;-89
2022/07/13 09:21:27;;;;;;;2.50;2.30;;;22.60;63.30;;;;;;6253476;22;20152;-89
2022/07/13 09:23:56;;;;;;;3.00;2.70;;;22.60;63.20;;;;;;6278112;22;20208;-89
2022/07/13 09:26:21;;;;;;;2.75;2.55;;;22.60;63.10;;;;;;6277969;22;20216;-88
2022/07/13 09:28:49;;;;;;;2.45;2.25;;;22.60;63.20;;;;;;6253026;22;20199;-90
2022/07/13 09:31:16;;;;;;;2.63;2.42;;;22.70;63.20;;;;;;6254994;22;20152;-89
2022/07/13 09:34:06;;;;;;;;;;;;;;;;;;;;;
2022/07/13 09:36:40;;;;;;;2.70;2.50;;;22.70;63.10;;;;;;6251599;22;20632;-89
2022/07/13 09:39:13;;;;;;;3.00;2.70;;;22.60;63.30;;;;;;6258398;22;20563;-88
2022/07/13 09:41:43;;;;;;;2.90;2.70;;;22.70;63.50;;;;;;6223386;23;20172;-89
2022/07/13 09:47:04;;;;;;;3.20;2.90;;;22.70;63.50;;;;;;6205200;23;20165;-90
2022/07/13 09:49:42;;;;;;;3.10;2.80;;;22.70;63.60;;;;;;6199906;23;20177;-89
2022/07/13 09:52:10;;;;;;;2.58;2.38;;;22.70;63.60;;;;;;6196521;23;20583;-89
2022/07/13 09:54:39;;;;;;;2.90;2.63;;;22.70;63.70;;;;;;6171181;23;20149;-88
2022/07/13 09:57:08;;;;;;;3.00;2.80;;;22.60;63.90;;;;;;6196413;23;20589;-89
2022/07/13 09:59:36;;;;;;;2.63;2.42;;;22.60;64.00;;;;;;6196398;23;20150;-89
2022/07/13 10:02:03;;;;;;;3.45;2.85;;;22.70;63.80;;;;;;6170561;23;20192;-90
2022/07/13 10:04:30;;;;;;;3.03;2.83;;;22.80;63.70;;;;;;6194728;23;20137;-90
2022/07/13 10:06:55;;;;;;;3.03;2.72;;;22.80;63.70;;;;;;6215188;22;20172;-88
2022/07/13 10:09:30;;;;;;;2.70;2.50;;;22.70;63.70;;;;;;6251500;22;20140;-90
2022/07/13 10:11:57;;;;;;;3.03;2.80;;;22.80;63.80;;;;;;6251251;22;20213;-90
2022/07/13 10:14:23;;;;;;;3.03;2.70;;;22.80;63.80;;;;;;6250963;22;20141;-89
2022/07/13 10:16:52;;;;;;;2.65;2.45;;;22.70;63.80;;;;;;6276781;22;20583;-88
2022/07/13 10:19:18;;;;;;;2.95;2.72;;;22.80;63.80;;;;;;6252598;22;20223;-88
2022/07/13 10:21:57;;;;;;;2.92;2.70;;;22.80;63.80;;;;;;6254142;22;20145;-88
2022/07/13 10:24:22;;;;;;;3.17;2.88;;;22.80;63.80;;;;;;6254579;22;20194;-90
2022/07/13 10:26:48;;;;;;;3.15;2.75;;;22.80;64.10;;;;;;6253465;22;20172;-89
2022/07/13 10:29:15;;;;;;;3.03;2.72;;;22.80;64.20;;;;;;6253297;22;20140;-89
2022/07/13 10:31:42;;;;;;;3.20;2.90;;;22.80;64.10;;;;;;6279129;22;20133;-89
2022/07/13 10:34:12;;;;;;;3.22;2.92;;;22.80;64.10;;;;;;6253107;22;20214;-90
2022/07/13 10:36:51;;;;;;;3.25;2.95;;;22.80;64.60;;;;;;6252946;22;20144;-91
2022/07/13 10:39:19;;;;;;;3.03;2.80;;;22.80;64.10;;;;;;6252785;22;20196;-89
2022/07/13 10:42:04;;;;;;;3.10;2.80;;;22.80;64.10;;;;;;6252889;22;20227;-88
2022/07/13 10:44:36;;;;;;;3.25;2.95;;;22.70;64.20;;;;;;6252626;22;20149;-88
2022/07/13 10:47:04;;;;;;;3.05;2.85;;;22.80;64.10;;;;;;6252751;22;20169;-88
2022/07/13 10:49:38;;;;;;;3.25;2.95;;;22.80;64.20;;;;;;6253144;22;20148;-87
2022/07/13 10:52:46;;;;;;;3.42;3.13;;;22.80;64.20;;;;;;6278788;22;20450;-89
2022/07/13 10:55:22;;;;;;;3.50;3.20;;;22.80;64.10;;;;;;6261334;22;20140;-89
2022/07/13 10:57:48;;;;;;;3.40;3.10;;;22.90;64.00;;;;;;6253753;22;20475;-89
2022/07/13 11:03:01;;;;;;;3.22;2.90;;;22.90;64.20;;;;;;6278371;22;20137;-89
2022/07/13 11:05:30;;;;;;;3.50;3.20;;;22.80;64.30;;;;;;6279087;22;20149;-89
2022/07/13 11:07:59;;;;;;;3.60;3.30;;;22.80;64.40;;;;;;6255109;22;20177;-89
2022/07/13 11:10:26;;;;;;;3.20;2.90;;;22.80;64.30;;;;;;6254066;22;20152;-89
2022/07/13 11:13:09;;;;;;;3.17;2.88;;;22.80;64.30;;;;;;6284879;22;20556;-88
2022/07/13 11:15:52;;;;;;;3.45;3.15;;;22.80;64.30;;;;;;6261969;22;20176;-90
2022/07/13 11:18:27;;;;;;;3.75;3.10;;;22.80;64.00;;;;;;6236338;22;20175;-89
2022/07/13 11:20:56;;;;;;;3.72;2.80;;;22.80;64.00;;;;;;6235398;22;20152;-89
2022/07/13 11:26:30;;;;;;;3.40;3.10;;;23.00;63.50;;;;;;6258394;22;20538;-89
2022/07/13 11:29:30;;;;;;;3.30;3.00;;;23.00;63.50;;;;;;6255493;22;20133;-90
2022/07/13 11:31:59;;;;;;;3.25;2.95;;;23.00;63.70;;;;;;6236360;22;20524;-89
2022/07/13 11:34:27;;;;;;;3.45;3.15;;;23.00;63.40;;;;;;6230330;22;20157;-90
2022/07/13 11:36:54;;;;;;;3.10;2.83;;;23.10;63.50;;;;;;6231706;22;20209;-89
2022/07/13 11:39:22;;;;;;;3.70;3.40;;;23.10;63.50;;;;;;6229858;22;20550;-90
2022/07/13 11:41:51;;;;;;;3.60;3.30;;;23.10;63.60;;;;;;6228796;22;20164;-90
2022/07/13 11:44:22;;;;;;;3.60;3.30;;;23.00;63.50;;;;;;6261873;22;20580;-89
2022/07/13 11:46:51;;;;;;;3.58;3.28;;;23.00;63.40;;;;;;6237502;22;20181;-89
2022/07/13 13:03:14;;;;;;;4.40;4.00;;;23.10;64.20;;;;;;6275211;22;20187;-90
2022/07/13 13:05:41;;;;;;;3.95;3.60;;;23.10;63.90;;;;;;6225125;23;20237;-91
2022/07/13 13:08:11;;;;;;;4.80;4.40;;;23.20;64.00;;;;;;6200856;23;20604;-89
2022/07/13 13:10:37;;;;;;;4.57;4.18;;;23.10;63.80;;;;;;6193751;23;20150;-90
2022/07/13 13:13:06;;;;;;;4.80;4.32;;;23.20;63.90;;;;;;6168159;23;20220;-88
2022/07/13 13:15:34;;;;;;;4.80;4.38;;;23.20;63.80;;;;;;6169308;23;20158;-90
2022/07/13 13:18:04;;;;;;;4.45;4.05;;;23.20;63.60;;;;;;6168833;23;20628;-89
2022/07/13 13:20:31;;;;;;;4.57;4.18;;;23.20;64.50;;;;;;6168982;23;20648;-89
2022/07/13 13:22:57;;;;;;;5.07;4.10;;;23.30;63.60;;;;;;6194223;23;20154;-89
2022/07/13 13:25:25;;;;;;;4.70;4.30;;;23.30;63.70;;;;;;6167078;23;20660;-88
2022/07/13 13:27:52;;;;;;;5.15;4.15;;;23.20;63.60;;;;;;6108261;23;20210;-89
2022/07/13 13:33:03;;;;;;;5.13;4.63;;;23.20;63.60;;;;;;6156379;23;20182;-90
2022/07/13 13:35:29;;;;;;;4.72;4.22;;;23.30;63.50;;;;;;6131339;23;20653;-90
2022/07/13 13:37:58;;;;;;;4.40;4.00;;;23.30;63.40;;;;;;6158450;23;20195;-91
2022/07/13 13:40:27;;;;;;;4.72;4.32;;;23.30;63.50;;;;;;6128265;23;20206;-89
2022/07/13 13:42:59;;;;;;;4.40;4.00;;;23.20;63.50;;;;;;6078751;23;20182;-90
2022/07/13 13:45:26;;;;;;;5.03;4.53;;;23.30;63.40;;;;;;6079143;23;20190;-89
2022/07/13 13:47:54;;;;;;;4.68;4.18;;;23.30;63.40;;;;;;6102124;23;20188;-90
2022/07/13 13:50:29;;;;;;;4.60;4.20;;;23.30;63.30;;;;;;6104893;23;20156;-91
2022/07/13 13:52:56;;;;;;;5.47;4.97;;;23.30;63.30;;;;;;6071191;23;20153;-90
2022/07/13 13:55:26;;;;;;;4.40;4.00;;;23.20;63.20;;;;;;6069759;23;20157;-91
2022/07/13 13:57:53;;;;;;;4.57;4.18;;;23.30;63.30;;;;;;6068194;23;20240;-91
2022/07/13 14:00:23;;;;;;;4.72;4.30;;;23.30;63.10;;;;;;6082174;23;20161;-90
2022/07/13 14:03:01;;;;;;;4.35;3.95;;;23.30;63.10;;;;;;6077979;23;20191;-90
2022/07/13 14:05:32;;;;;;;4.40;4.00;;;23.30;63.10;;;;;;6126179;23;20601;-89
2022/07/13 14:07:59;;;;;;;4.60;4.20;;;23.40;63.10;;;;;;6128938;23;20246;-91
2022/07/13 14:10:42;;;;;;;5.00;4.03;;;23.30;63.20;;;;;;6136707;23;20253;-90
2022/07/13 14:13:33;;;;;;;4.78;4.35;;;23.30;63.20;;;;;;6167017;23;20150;-89
2022/07/13 14:16:12;;;;;;;;;;;;;;;;;;;;;
2022/07/13 14:18:50;;;;;;;4.32;3.92;;;23.30;63.10;;;;;;6185985;23;20166;-90
2022/07/13 14:21:18;;;;;;;4.03;3.70;;;23.20;63.20;;;;;;6165827;23;20151;-89
2022/07/13 14:23:51;;;;;;;4.20;3.80;;;23.30;63.10;;;;;;6169990;23;20249;-88